Time;durP1;ratioP1;P1;durP2;ratioP2;P2;SDS_P1;SDS_P2;PMS_P1;PMS_P2;Temp;Humidity;BMP_temperature;BMP_pressure;BME280_temperature;BME280_humidity;BME280_pressure;Samples;Min_cycle;Max_cycle;Signal;HPM_P1;HPM_P2
2023/10/02 00:01:53;;;;;;;12.90;7.30;;;;;;;14.25;100.00;100696.81;105897;1255;61022;-76
2023/10/02 00:04:23;;;;;;;15.00;7.10;;;;;;;14.27;100.00;100694.59;105796;1251;60463;-76
2023/10/02 00:07:05;;;;;;;13.40;6.50;;;;;;;14.28;100.00;100694.51;105790;1251;73723;-76
2023/10/02 00:09:36;;;;;;;16.00;6.10;;;;;;;14.29;100.00;100697.46;105841;1251;63880;-76
2023/10/02 00:12:11;;;;;;;8.10;6.20;;;;;;;14.29;100.00;100696.37;106006;1251;72722;-74
2023/10/02 00:14:40;;;;;;;9.70;6.20;;;;;;;14.28;100.00;100696.23;105887;1255;61971;-77
2023/10/02 00:17:13;;;;;;;9.40;5.40;;;;;;;14.26;100.00;100695.19;106010;1255;60461;-77
2023/10/02 00:19:43;;;;;;;11.50;5.60;;;;;;;14.24;100.00;100692.69;105825;1255;74268;-75
2023/10/02 00:25:02;;;;;;;12.10;6.00;;;;;;;14.20;100.00;100691.06;105837;1251;72614;-74
2023/10/02 00:27:30;;;;;;;9.90;4.80;;;;;;;14.19;100.00;100691.35;105870;1255;60891;-74
2023/10/02 00:29:59;;;;;;;14.70;4.90;;;;;;;14.16;100.00;100692.23;105792;1251;60636;-74
2023/10/02 00:32:29;;;;;;;9.70;5.70;;;;;;;14.14;100.00;100690.48;105817;1253;73540;-75
2023/10/02 00:34:58;;;;;;;12.10;5.30;;;;;;;14.13;100.00;100693.92;105852;1255;63679;-75
2023/10/02 00:37:43;;;;;;;8.40;5.00;;;;;;;14.10;100.00;100695.13;105875;1251;72710;-75
2023/10/02 00:40:21;;;;;;;7.80;5.10;;;;;;;14.10;100.00;100695.67;105991;1251;62036;-77
2023/10/02 00:42:59;;;;;;;11.70;5.00;;;;;;;14.09;100.00;100705.41;105887;1251;60461;-77
2023/10/02 00:45:29;;;;;;;8.20;4.30;;;;;;;14.08;100.00;100699.48;105737;1251;73846;-75
2023/10/02 00:48:25;;;;;;;12.90;5.30;;;;;;;14.08;100.00;100706.70;105807;1251;64025;-76
2023/10/02 00:50:50;;;;;;;13.40;6.20;;;;;;;14.06;100.00;100708.05;105786;1251;72747;-76
2023/10/02 00:53:24;;;;;;;8.10;4.00;;;;;;;14.04;100.00;100707.54;106358;1257;60667;-74
2023/10/02 00:55:51;;;;;;;8.70;4.60;;;;;;;14.03;100.00;100705.70;106093;1251;60409;-73
2023/10/02 00:58:18;;;;;;;12.00;4.90;;;;;;;14.01;100.00;100700.17;105780;1257;73784;-75
2023/10/02 01:00:50;;;;;;;13.40;5.20;;;;;;;14.00;100.00;100699.20;105992;1255;63860;-74
2023/10/02 01:03:17;;;;;;;9.10;4.40;;;;;;;14.00;100.00;100705.73;105658;1251;72608;-76
2023/10/02 01:05:50;;;;;;;11.20;5.00;;;;;;;13.99;100.00;100705.29;105767;1255;60572;-75
2023/10/02 01:08:24;;;;;;;8.10;4.70;;;;;;;13.98;100.00;100707.13;105702;1255;60440;-76
2023/10/02 01:10:59;;;;;;;11.20;4.70;;;;;;;13.97;100.00;100703.52;105805;1251;74003;-75
2023/10/02 01:13:30;;;;;;;10.40;5.30;;;;;;;13.94;100.00;100703.34;105763;1252;63845;-74
2023/10/02 01:15:59;;;;;;;9.80;4.90;;;;;;;13.92;100.00;100704.88;105712;1256;71706;-76
2023/10/02 01:18:29;;;;;;;7.20;4.20;;;;;;;13.89;100.00;100708.94;105700;1253;62008;-74
2023/10/02 01:20:59;;;;;;;10.60;4.80;;;;;;;13.86;100.00;100716.17;105771;1251;60453;-75
2023/10/02 01:23:27;;;;;;;9.50;4.70;;;;;;;13.84;100.00;100720.20;105779;1255;74004;-75
2023/10/02 01:25:59;;;;;;;13.30;5.10;;;;;;;13.80;100.00;100723.51;105777;1256;63880;-76
2023/10/02 01:28:52;;;;;;;14.80;5.30;;;;;;;13.76;100.00;100723.80;105845;1251;71436;-76
2023/10/02 01:31:31;;;;;;;10.50;4.40;;;;;;;13.73;100.00;100723.16;106000;1255;62025;-76
2023/10/02 01:33:59;;;;;;;10.10;4.40;;;;;;;13.70;100.00;100722.84;105817;1251;60458;-76
2023/10/02 01:36:30;;;;;;;7.50;4.80;;;;;;;13.65;100.00;100724.93;105889;1251;73924;-74
2023/10/02 01:38:59;;;;;;;9.70;4.50;;;;;;;13.61;100.00;100724.65;105798;1253;62617;-75
2023/10/02 01:41:26;;;;;;;11.70;4.50;;;;;;;13.58;100.00;100726.83;105993;1253;70785;-78
2023/10/02 01:43:55;;;;;;;13.70;4.80;;;;;;;13.54;100.00;100729.20;105733;1256;61757;-75
2023/10/02 01:46:23;;;;;;;10.90;4.30;;;;;;;13.51;100.00;100727.84;105825;1251;60444;-76
2023/10/02 01:48:50;;;;;;;10.80;4.30;;;;;;;13.50;100.00;100729.20;105852;1253;73856;-78
2023/10/02 01:51:29;;;;;;;9.40;4.30;;;;;;;13.48;100.00;100727.72;105819;1255;63921;-76
2023/10/02 01:54:02;;;;;;;9.50;4.40;;;;;;;13.44;100.00;100729.70;105859;1251;72678;-75
2023/10/02 01:56:31;;;;;;;7.40;3.60;;;;;;;13.42;100.00;100727.79;105990;1255;60537;-75
2023/10/02 01:59:14;;;;;;;8.20;3.80;;;;;;;13.39;100.00;100734.98;105962;1253;60350;-76
2023/10/02 02:02:14;;;;;;;13.00;4.00;;;;;;;13.37;100.00;100733.59;105895;1255;74054;-74
2023/10/02 02:04:34;;;;;;;6.80;4.60;;;;;;;13.36;100.00;100743.11;105644;1251;63336;-75
2023/10/02 02:07:02;;;;;;;11.00;4.70;;;;;;;13.34;100.00;100745.88;105791;1256;71313;-74
2023/10/02 02:09:35;;;;;;;9.70;4.60;;;;;;;13.31;100.00;100746.45;105684;1255;62088;-75
2023/10/02 02:12:14;;;;;;;6.20;3.70;;;;;;;13.28;100.00;100745.27;105782;1251;60573;-76
2023/10/02 02:14:51;;;;;;;10.30;4.30;;;;;;;13.24;100.00;100747.64;105777;1256;73850;-76
2023/10/02 02:17:27;;;;;;;7.30;3.80;;;;;;;13.18;100.00;100745.20;105697;1255;63791;-74
2023/10/02 02:19:59;;;;;;;7.50;3.60;;;;;;;13.14;100.00;100743.21;106126;1251;71558;-75
2023/10/02 02:22:31;;;;;;;9.30;4.10;;;;;;;13.10;100.00;100741.54;105759;1255;61963;-76
2023/10/02 02:24:58;;;;;;;9.50;3.60;;;;;;;13.07;100.00;100743.34;105828;1251;60451;-76
2023/10/02 02:27:25;;;;;;;10.20;4.10;;;;;;;13.05;100.00;100741.77;105825;1251;73962;-73
2023/10/02 02:29:56;;;;;;;7.70;4.10;;;;;;;13.03;100.00;100738.48;105816;1255;63607;-73
2023/10/02 02:32:37;;;;;;;11.70;4.40;;;;;;;13.03;100.00;100741.16;105914;1251;72795;-75
2023/10/02 02:35:04;;;;;;;10.90;3.30;;;;;;;13.02;100.00;100735.73;105871;1255;62035;-77
2023/10/02 02:37:33;;;;;;;7.60;3.70;;;;;;;13.02;100.00;100731.38;105798;1251;60553;-75
2023/10/02 02:40:22;;;;;;;7.60;3.90;;;;;;;13.03;100.00;100731.88;105827;1256;73674;-73
2023/10/02 02:42:52;;;;;;;5.80;3.10;;;;;;;13.03;100.00;100732.52;105938;1255;63985;-74
2023/10/02 02:45:29;;;;;;;7.10;3.10;;;;;;;13.04;100.00;100732.45;105817;1251;72697;-74
2023/10/02 02:48:07;;;;;;;6.10;3.30;;;;;;;13.04;100.00;100731.28;105802;1255;62049;-73
2023/10/02 02:50:40;;;;;;;7.70;4.10;;;;;;;13.03;100.00;100733.41;105826;1251;60457;-73
2023/10/02 02:53:17;;;;;;;11.90;3.90;;;;;;;13.03;100.00;100737.84;105866;1255;72738;-75
2023/10/02 02:55:44;;;;;;;7.90;3.40;;;;;;;13.03;100.00;100734.33;105838;1256;63834;-75
2023/10/02 02:58:11;;;;;;;7.70;3.50;;;;;;;13.02;100.00;100731.91;105863;1251;72513;-75
2023/10/02 03:00:39;;;;;;;8.70;4.40;;;;;;;13.01;100.00;100730.05;105788;1256;61973;-77
2023/10/02 03:03:32;;;;;;;13.10;5.50;;;;;;;13.01;100.00;100734.98;106017;1251;60383;-74
2023/10/02 03:05:58;;;;;;;10.80;4.60;;;;;;;13.02;100.00;100736.66;105917;1253;73772;-77
2023/10/02 03:08:39;;;;;;;10.90;3.90;;;;;;;13.01;100.00;100731.46;105837;1255;63760;-76
2023/10/02 03:11:06;;;;;;;8.70;4.10;;;;;;;13.01;100.00;100727.80;105826;1251;72732;-74
2023/10/02 03:17:51;;;;;;;4.00;3.40;;;;;;;13.01;100.00;100724.29;105816;1251;60636;-75
2023/10/02 03:20:25;;;;;;;7.10;3.70;;;;;;;13.00;100.00;100720.30;105851;1256;73902;-74
2023/10/02 03:22:56;;;;;;;8.30;3.60;;;;;;;12.99;100.00;100718.77;105810;1256;63913;-75
2023/10/02 03:25:28;;;;;;;10.70;3.60;;;;;;;13.01;100.00;100729.70;105794;1256;72456;-74
2023/10/02 03:27:57;;;;;;;7.10;3.50;;;;;;;13.03;100.00;100737.25;105831;1251;60966;-74
2023/10/02 03:30:38;;;;;;;6.50;3.60;;;;;;;13.06;100.00;100739.38;105894;1251;60435;-77
2023/10/02 03:33:19;;;;;;;4.50;2.80;;;;;;;13.08;100.00;100735.55;105825;1251;73950;-75
2023/10/02 03:38:33;;;;;;;9.00;3.90;;;;;;;13.12;100.00;100740.17;105815;1253;72568;-76
2023/10/02 03:41:02;;;;;;;17.50;4.00;;;;;;;13.15;100.00;100748.91;105806;1256;62713;-76
2023/10/02 03:43:50;;;;;;;6.50;3.40;;;;;;;13.18;100.00;100750.63;105872;1253;60333;-74
2023/10/02 03:46:22;;;;;;;11.20;4.20;;;;;;;13.20;100.00;100753.48;105888;1253;73908;-76
2023/10/02 03:49:01;;;;;;;8.80;3.80;;;;;;;13.22;100.00;100756.17;106022;1252;62489;-75
2023/10/02 03:51:37;;;;;;;5.00;3.20;;;;;;;13.23;100.00;100760.45;105655;1255;72505;-75
2023/10/02 03:54:18;;;;;;;8.90;3.30;;;;;;;13.25;100.00;100761.61;105845;1255;63450;-75
2023/10/02 03:56:49;;;;;;;5.80;3.20;;;;;;;13.25;100.00;100764.39;105895;1251;60368;-75
2023/10/02 03:59:27;;;;;;;5.50;3.20;;;;;;;13.26;100.00;100768.19;105949;1255;73843;-75
2023/10/02 04:01:57;;;;;;;7.80;3.30;;;;;;;13.27;100.00;100772.67;105821;1253;62864;-73
2023/10/02 04:04:24;;;;;;;6.70;3.10;;;;;;;13.29;100.00;100770.30;105741;1253;73878;-78
2023/10/02 04:06:55;;;;;;;5.80;3.20;;;;;;;13.30;100.00;100771.11;105711;1251;61932;-77
2023/10/02 04:09:25;;;;;;;6.80;2.80;;;;;;;13.32;100.00;100773.63;105721;1251;60469;-77
2023/10/02 04:11:53;;;;;;;6.40;2.90;;;;;;;13.35;100.00;100779.40;105747;1256;73888;-78
2023/10/02 04:14:33;;;;;;;5.90;3.00;;;;;;;13.37;100.00;100779.77;105878;1255;63779;-75
2023/10/02 04:17:49;;;;;;;11.80;4.10;;;;;;;13.39;100.00;100781.74;105859;1251;72723;-74
2023/10/02 04:19:52;;;;;;;9.70;3.40;;;;;;;13.42;100.00;100784.19;105620;1255;61797;-76
2023/10/02 04:22:22;;;;;;;7.00;3.70;;;;;;;13.44;100.00;100783.11;105965;1253;60480;-76
2023/10/02 04:24:54;;;;;;;6.50;3.00;;;;;;;13.47;100.00;100784.65;105843;1253;73826;-75
2023/10/02 04:27:25;;;;;;;10.30;3.40;;;;;;;13.51;100.00;100785.49;106200;1255;63869;-74
2023/10/02 04:32:36;;;;;;;8.00;3.80;;;;;;;13.57;100.00;100779.45;106027;1255;61920;-74
2023/10/02 04:35:03;;;;;;;16.00;4.20;;;;;;;13.59;100.00;100783.80;105922;1253;60406;-76
2023/10/02 04:37:36;;;;;;;10.10;3.20;;;;;;;13.63;100.00;100788.99;105881;1255;73876;-75
2023/10/02 04:42:57;;;;;;;21.40;4.20;;;;;;;13.70;100.00;100792.42;105720;1255;72879;-76
2023/10/02 04:45:34;;;;;;;6.60;3.30;;;;;;;13.72;100.00;100792.59;105862;1255;61977;-76
2023/10/02 04:48:01;;;;;;;11.60;3.10;;;;;;;13.75;100.00;100795.90;105823;1255;60641;-75
2023/10/02 04:52:56;;;;;;;7.60;3.60;;;;;;;13.84;100.00;100799.12;105740;1255;63919;-75
2023/10/02 04:55:24;;;;;;;11.50;2.80;;;;;;;13.91;100.00;100796.87;105882;1253;72503;-78
2023/10/02 04:57:54;;;;;;;6.90;4.00;;;;;;;14.01;100.00;100800.23;105949;1255;62043;-75
2023/10/02 05:00:32;;;;;;;8.10;3.20;;;;;;;14.10;100.00;100803.77;106021;1255;60423;-76
2023/10/02 05:03:09;;;;;;;8.50;3.20;;;;;;;14.21;100.00;100811.76;105727;1251;73890;-74
2023/10/02 05:05:42;;;;;;;12.10;3.50;;;;;;;14.32;100.00;100814.00;105681;1256;63962;-76
2023/10/02 05:08:18;;;;;;;12.40;3.90;;;;;;;14.40;100.00;100819.88;105943;1253;72713;-76
2023/10/02 05:11:05;;;;;;;7.70;3.80;;;;;;;14.48;100.00;100825.82;105879;1253;60620;-75
2023/10/02 05:13:53;;;;;;;8.20;2.70;;;;;;;14.52;100.00;100823.63;105804;1253;60486;-74
2023/10/02 05:16:29;;;;;;;10.00;3.70;;;;;;;14.55;100.00;100825.52;105999;1252;73732;-76
2023/10/02 05:18:57;;;;;;;10.90;3.40;;;;;;;14.58;100.00;100830.94;105990;1255;63715;-75
2023/10/02 05:21:36;;;;;;;6.00;2.90;;;;;;;14.58;100.00;100827.78;105779;1252;72991;-75
2023/10/02 05:24:03;;;;;;;11.10;3.90;;;;;;;14.57;100.00;100830.52;105831;1253;62057;-75
2023/10/02 05:26:34;;;;;;;10.70;3.60;;;;;;;14.58;100.00;100827.81;105925;1253;60533;-74
2023/10/02 05:29:09;;;;;;;8.10;3.80;;;;;;;14.59;100.00;100828.92;105841;1255;75107;-73
2023/10/02 05:31:40;;;;;;;10.10;3.10;;;;;;;14.66;100.00;100830.55;106122;1256;63831;-71
2023/10/02 05:34:21;;;;;;;4.90;3.20;;;;;;;14.72;100.00;100829.05;105855;1254;72872;-75
2023/10/02 05:37:11;;;;;;;6.30;2.90;;;;;;;14.80;100.00;100828.11;105897;1255;61926;-75
2023/10/02 05:39:41;;;;;;;5.50;3.20;;;;;;;14.90;100.00;100830.17;105916;1251;60432;-75
2023/10/02 05:42:13;;;;;;;8.00;3.20;;;;;;;14.96;100.00;100835.52;105775;1251;73767;-74
2023/10/02 05:44:42;;;;;;;12.80;3.90;;;;;;;15.02;100.00;100838.08;105940;1255;63884;-77
2023/10/02 05:47:09;;;;;;;8.30;3.60;;;;;;;15.10;100.00;100835.36;105905;1254;72723;-75
2023/10/02 05:49:47;;;;;;;10.10;3.40;;;;;;;15.19;100.00;100838.58;105791;1255;61997;-73
2023/10/02 05:52:18;;;;;;;4.80;2.80;;;;;;;15.29;100.00;100839.36;105860;1255;60451;-75
2023/10/02 05:54:53;;;;;;;12.40;3.80;;;;;;;15.38;100.00;100837.10;105760;1255;72555;-78
2023/10/02 05:57:20;;;;;;;7.70;3.40;;;;;;;15.46;100.00;100841.82;105825;1256;64143;-73
2023/10/02 05:59:48;;;;;;;7.00;3.60;;;;;;;15.50;100.00;100846.23;105754;1251;72773;-73
2023/10/02 06:02:19;;;;;;;8.20;3.50;;;;;;;15.56;100.00;100850.70;105837;1251;62016;-75
2023/10/02 06:04:47;;;;;;;5.90;3.50;;;;;;;15.64;100.00;100847.61;105811;1251;60401;-71
2023/10/02 06:07:40;;;;;;;8.90;3.50;;;;;;;15.73;100.00;100849.77;105753;1255;73923;-75
2023/10/02 06:10:28;;;;;;;9.00;3.60;;;;;;;15.79;100.00;100847.55;105808;1255;63896;-73
2023/10/02 06:13:05;;;;;;;5.10;2.70;;;;;;;15.83;100.00;100846.89;105914;1253;72808;-77
2023/10/02 06:15:47;;;;;;;7.20;3.20;;;;;;;15.89;100.00;100850.99;105886;1256;62102;-74
2023/10/02 06:18:24;;;;;;;8.60;3.20;;;;;;;15.98;100.00;100850.59;105924;1251;60531;-75
2023/10/02 06:21:00;;;;;;;9.30;3.20;;;;;;;16.08;100.00;100850.92;105838;1255;73664;-77
2023/10/02 06:23:29;;;;;;;7.60;3.10;;;;;;;16.16;100.00;100849.71;105890;1253;62255;-74
2023/10/02 06:25:59;;;;;;;9.00;3.10;;;;;;;16.25;100.00;100853.11;106256;1256;73144;-74
2023/10/02 06:28:27;;;;;;;6.90;3.20;;;;;;;16.34;100.00;100856.39;105899;1255;61776;-77
2023/10/02 06:30:56;;;;;;;8.50;2.70;;;;;;;16.42;100.00;100852.62;106011;1251;60356;-75
2023/10/02 06:33:23;;;;;;;7.10;2.40;;;;;;;16.48;100.00;100858.45;105848;1253;73776;-73
2023/10/02 06:35:57;;;;;;;5.80;2.30;;;;;;;16.55;100.00;100857.17;105847;1256;63069;-75
2023/10/02 06:38:25;;;;;;;10.00;3.30;;;;;;;16.61;100.00;100861.69;105901;1253;72627;-76
2023/10/02 06:40:56;;;;;;;7.90;2.90;;;;;;;16.64;100.00;100865.65;105917;1255;61985;-75
2023/10/02 06:43:28;;;;;;;7.10;3.50;;;;;;;16.73;100.00;100867.71;105829;1251;60563;-77
2023/10/02 06:46:16;;;;;;;6.00;3.10;;;;;;;16.90;100.00;100868.33;105784;1255;73886;-73
2023/10/02 06:48:54;;;;;;;9.90;3.60;;;;;;;17.20;100.00;100869.52;105830;1256;63666;-76
2023/10/02 06:51:21;;;;;;;10.40;3.40;;;;;;;17.48;100.00;100873.15;105919;1255;72776;-77
2023/10/02 06:53:48;;;;;;;6.70;3.00;;;;;;;17.74;100.00;100877.29;105703;1255;60659;-74
2023/10/02 06:56:15;;;;;;;5.80;2.70;;;;;;;18.09;100.00;100881.35;105685;1253;60445;-76
2023/10/02 06:58:56;;;;;;;11.80;4.10;;;;;;;18.34;100.00;100882.34;105747;1255;73896;-76
2023/10/02 07:01:27;;;;;;;6.80;2.90;;;;;;;18.51;100.00;100881.60;105769;1256;63966;-75
2023/10/02 07:03:56;;;;;;;6.10;2.60;;;;;;;18.61;100.00;100885.96;105657;1256;72700;-75
2023/10/02 07:06:26;;;;;;;11.60;3.70;;;;;;;18.66;100.00;100887.80;105743;1251;62288;-76
2023/10/02 07:09:13;;;;;;;8.20;2.40;;;;;;;18.73;100.00;100888.30;105698;1253;60444;-76
2023/10/02 07:11:45;;;;;;;7.80;2.80;;;;;;;18.83;100.00;100891.27;105953;1253;73718;-78
2023/10/02 07:14:12;;;;;;;9.70;3.10;;;;;;;18.92;100.00;100889.92;105771;1255;64027;-75
2023/10/02 07:16:41;;;;;;;5.50;2.30;;;;;;;18.97;99.92;100890.50;105763;1255;72643;-75
2023/10/02 07:19:09;;;;;;;8.10;2.70;;;;;;;19.00;100.00;100891.52;105833;1254;60578;-74
2023/10/02 07:24:56;;;;;;;5.30;2.70;;;;;;;19.31;100.00;100896.61;102570;1292;605288;-76
2023/10/02 07:27:24;;;;;;;8.20;3.30;;;;;;;19.76;98.41;100895.64;104854;1270;60257;-76
2023/10/02 07:29:53;;;;;;;8.50;2.60;;;;;;;20.13;94.63;100889.67;104912;1267;59405;-77
2023/10/02 07:32:21;;;;;;;7.60;3.10;;;;;;;20.36;90.94;100894.00;104898;1267;72236;-77
2023/10/02 07:34:50;;;;;;;10.60;3.60;;;;;;;20.49;88.45;100890.08;105009;1269;63686;-77
2023/10/02 07:37:21;;;;;;;8.10;3.10;;;;;;;20.46;83.94;100893.35;104938;1266;218930;-75
2023/10/02 07:39:56;;;;;;;6.40;3.30;;;;;;;20.30;84.40;100893.77;105044;1266;60363;-73
2023/10/02 07:42:29;;;;;;;4.40;2.70;;;;;;;20.25;86.80;100891.67;105497;1257;60348;-74
2023/10/02 07:45:11;;;;;;;8.60;2.50;;;;;;;20.37;88.63;100896.05;105575;1260;72040;-78
2023/10/02 07:48:08;;;;;;;10.00;3.70;;;;;;;20.67;87.23;100893.33;105461;1260;63865;-77
2023/10/02 07:50:35;;;;;;;7.90;2.80;;;;;;;20.95;84.11;100895.71;105502;1260;72624;-75
2023/10/02 07:53:04;;;;;;;11.30;3.00;;;;;;;21.16;79.10;100896.85;105471;1257;60229;-76
2023/10/02 07:55:43;;;;;;;11.30;3.70;;;;;;;21.32;74.08;100891.48;105638;1257;59602;-77
2023/10/02 07:58:13;;;;;;;12.90;3.30;;;;;;;21.52;71.35;100888.41;105660;1254;73094;-75
2023/10/02 08:00:41;;;;;;;7.70;2.90;;;;;;;21.69;61.54;100886.17;105611;1257;63858;-76
2023/10/02 08:03:31;;;;;;;6.60;3.20;;;;;;;21.77;59.31;100888.48;105641;1258;72576;-75
2023/10/02 08:05:57;;;;;;;9.00;2.90;;;;;;;21.85;59.20;100888.20;105805;1258;60404;-76
2023/10/02 08:08:34;;;;;;;8.40;2.80;;;;;;;22.02;57.71;100891.30;105807;1254;60358;-77
2023/10/02 08:11:02;;;;;;;8.60;2.70;;;;;;;22.41;55.93;100894.33;105742;1254;73081;-77
2023/10/02 08:13:32;;;;;;;6.40;2.90;;;;;;;22.75;54.01;100900.88;105659;1254;62623;-77
2023/10/02 08:16:01;;;;;;;10.70;2.50;;;;;;;22.98;52.21;100901.98;105772;1258;72681;-74
2023/10/02 08:18:29;;;;;;;5.80;2.30;;;;;;;22.99;50.64;100903.30;105730;1254;60539;-76
2023/10/02 08:20:56;;;;;;;6.50;2.70;;;;;;;22.86;51.05;100900.59;106110;1254;60271;-78
2023/10/02 08:23:23;;;;;;;8.10;2.70;;;;;;;22.94;51.58;100898.52;106037;1254;73124;-73
2023/10/02 08:26:02;;;;;;;9.60;3.00;;;;;;;23.15;49.59;100898.52;105683;1258;63713;-75
2023/10/02 08:28:52;;;;;;;8.00;3.20;;;;;;;23.43;47.67;100893.66;105700;1258;73240;-75
2023/10/02 08:31:19;;;;;;;10.10;3.50;;;;;;;23.47;46.37;100893.83;105699;1258;60271;-75
2023/10/02 08:33:48;;;;;;;11.90;3.10;;;;;;;23.41;46.03;100893.37;105722;1254;60415;-73
2023/10/02 08:36:29;;;;;;;9.80;2.90;;;;;;;23.27;45.93;100895.09;105691;1254;73124;-73
2023/10/02 08:38:57;;;;;;;7.40;2.70;;;;;;;23.09;46.40;100893.52;105637;1259;64230;-76
2023/10/02 08:41:44;;;;;;;5.80;2.70;;;;;;;23.12;47.18;100900.65;105614;1258;73525;-74
2023/10/02 08:44:12;;;;;;;7.60;2.90;;;;;;;23.38;46.88;100901.80;105715;1259;60444;-76
2023/10/02 08:46:48;;;;;;;10.70;5.60;;;;;;;23.68;45.61;100898.95;105640;1254;60275;-75
2023/10/02 08:49:16;;;;;;;11.90;7.30;;;;;;;23.83;44.09;100894.61;105556;1258;73493;-74
2023/10/02 08:51:49;;;;;;;14.20;7.30;;;;;;;23.91;43.53;100895.66;105630;1258;65563;-74
2023/10/02 08:54:18;;;;;;;12.90;6.80;;;;;;;24.15;42.98;100896.87;105581;1258;72678;-74
2023/10/02 08:56:48;;;;;;;11.60;6.00;;;;;;;24.46;41.38;100896.13;105649;1259;60362;-75
2023/10/02 08:59:18;;;;;;;11.50;5.00;;;;;;;24.83;40.93;100899.75;105390;1254;61330;-77
2023/10/02 09:01:47;;;;;;;7.60;3.50;;;;;;;25.30;39.74;100900.98;105639;1254;74055;-78
2023/10/02 09:04:36;;;;;;;7.70;3.60;;;;;;;25.71;36.99;100905.59;105682;1259;62744;-73
2023/10/02 09:07:14;;;;;;;12.00;3.70;;;;;;;26.04;35.76;100900.64;105580;1254;73186;-75
2023/10/02 09:09:54;;;;;;;9.80;4.50;;;;;;;26.32;34.94;100897.92;105654;1259;61180;-77
2023/10/02 09:12:22;;;;;;;10.40;5.10;;;;;;;26.61;33.70;100900.45;105725;1254;60202;-75
2023/10/02 09:14:52;;;;;;;8.30;4.90;;;;;;;26.98;33.46;100896.70;105680;1256;73095;-76
2023/10/02 09:17:22;;;;;;;11.90;4.00;;;;;;;27.35;32.14;100900.90;105610;1259;62624;-75
2023/10/02 09:20:07;;;;;;;9.40;3.50;;;;;;;27.67;31.42;100899.38;105880;1255;72789;-75
2023/10/02 09:22:38;;;;;;;9.80;4.00;;;;;;;27.99;30.94;100893.61;106026;1251;60619;-80
2023/10/02 09:25:12;;;;;;;9.80;5.30;;;;;;;28.24;30.82;100890.73;105957;1256;61576;-76
2023/10/02 09:27:55;;;;;;;11.10;4.50;;;;;;;28.47;30.82;100889.41;105951;1255;72104;-76
2023/10/02 09:30:36;;;;;;;7.40;4.20;;;;;;;28.75;30.32;100886.88;105981;1255;63893;-73
2023/10/02 09:33:18;;;;;;;9.70;3.60;;;;;;;28.93;29.09;100881.04;105892;1257;72928;-74
2023/10/02 09:36:06;;;;;;;6.30;4.00;;;;;;;28.95;28.86;100886.89;105958;1251;59714;-75
2023/10/02 09:38:55;;;;;;;12.40;3.70;;;;;;;29.07;28.58;100884.88;105902;1251;60385;-74
2023/10/02 09:41:23;;;;;;;7.90;3.60;;;;;;;29.15;27.88;100884.23;105981;1256;72057;-74
2023/10/02 09:43:50;;;;;;;11.80;4.50;;;;;;;29.09;27.68;100882.15;105856;1251;63896;-78
2023/10/02 09:46:22;;;;;;;9.60;4.30;;;;;;;28.85;27.36;100882.81;105968;1255;72689;-75
2023/10/02 09:49:03;;;;;;;8.20;3.80;;;;;;;28.52;27.80;100878.42;105705;1259;60790;-73
2023/10/02 09:52:15;;;;;;;11.50;4.40;;;;;;;28.49;28.27;100875.82;105870;1251;60446;-77
2023/10/02 09:55:15;;;;;;;8.50;4.50;;;;;;;28.46;28.04;100879.39;105835;1251;73161;-76
2023/10/02 09:57:49;;;;;;;11.30;4.40;;;;;;;28.30;28.06;100874.23;105917;1251;63711;-74
2023/10/02 10:03:24;;;;;;;10.10;3.80;;;;;;;28.35;28.21;100872.64;105996;1256;60296;-75
2023/10/02 10:06:16;;;;;;;10.50;3.80;;;;;;;28.38;27.66;100873.21;105891;1256;60453;-73
2023/10/02 10:11:42;;;;;;;11.70;3.90;;;;;;;28.16;27.98;100880.37;105995;1256;62961;-75
2023/10/02 10:14:44;;;;;;;9.10;3.80;;;;;;;28.25;28.10;100877.55;105938;1251;73733;-79
2023/10/02 10:17:21;;;;;;;8.60;3.90;;;;;;;28.39;27.80;100880.79;105353;1258;61169;-74
2023/10/02 10:22:50;;;;;;;8.10;3.50;;;;;;;28.24;28.24;100875.76;105301;1258;73243;-74
2023/10/02 10:28:08;;;;;;;15.50;5.80;;;;;;;27.85;27.64;100882.27;105312;1261;72784;-73
2023/10/02 10:30:42;;;;;;;9.90;3.80;;;;;;;27.52;27.92;100886.14;105414;1260;60316;-76
2023/10/02 10:35:49;;;;;;;8.60;3.90;;;;;;;27.45;28.20;100874.20;105325;1257;72352;-75
2023/10/02 10:38:26;;;;;;;16.10;4.20;;;;;;;27.42;28.14;100878.09;105297;1257;62202;-76
2023/10/02 10:41:23;;;;;;;8.60;3.40;;;;;;;27.09;28.55;100879.04;105378;1257;73191;-75
2023/10/02 10:43:56;;;;;;;12.90;4.00;;;;;;;26.93;28.43;100869.96;105527;1257;59874;-76
2023/10/02 10:46:28;;;;;;;8.40;4.10;;;;;;;26.87;28.71;100876.23;105490;1263;59625;-76
2023/10/02 10:49:15;;;;;;;13.90;4.60;;;;;;;26.89;28.57;100877.98;105355;1257;71806;-75
2023/10/02 10:51:43;;;;;;;10.20;4.10;;;;;;;26.86;28.51;100884.26;105404;1261;63852;-74
2023/10/02 10:54:15;;;;;;;6.40;3.30;;;;;;;26.96;28.29;100887.16;105489;1251;71507;-74
2023/10/02 10:57:26;;;;;;;10.00;3.50;;;;;;;27.00;28.08;100879.96;105989;1256;59649;-75
2023/10/02 11:00:25;;;;;;;10.60;3.20;;;;;;;26.90;28.04;100878.66;105971;1256;59647;-77
2023/10/02 11:03:13;;;;;;;14.00;4.40;;;;;;;26.52;28.21;100878.43;105778;1251;73370;-75
2023/10/02 11:05:41;;;;;;;8.80;4.80;;;;;;;26.09;28.89;100883.27;105818;1251;63237;-79
2023/10/02 11:08:24;;;;;;;7.80;4.10;;;;;;;26.06;29.36;100885.33;105891;1256;72699;-76
2023/10/02 11:11:09;;;;;;;10.30;3.70;;;;;;;26.13;28.93;100886.79;106114;1256;60361;-74
2023/10/02 11:13:51;;;;;;;8.40;4.20;;;;;;;26.10;28.89;100883.36;105961;1256;59571;-75
2023/10/02 11:16:34;;;;;;;6.80;3.30;;;;;;;25.94;28.80;100877.27;106416;1255;71752;-78
2023/10/02 11:19:21;;;;;;;11.40;4.60;;;;;;;25.66;29.57;100877.41;105947;1257;63947;-74
2023/10/02 11:22:21;;;;;;;8.20;4.30;;;;;;;25.35;29.69;100880.44;106010;1253;72602;-74
2023/10/02 11:24:52;;;;;;;11.00;4.20;;;;;;;25.02;30.35;100878.86;105978;1256;60340;-75
2023/10/02 11:27:21;;;;;;;8.80;4.10;;;;;;;24.75;30.94;100879.91;105926;1257;60190;-75
2023/10/02 11:30:03;;;;;;;9.90;3.60;;;;;;;24.46;31.20;100875.69;105909;1252;74357;-74
2023/10/02 11:32:54;;;;;;;8.40;3.60;;;;;;;23.99;31.61;100880.56;105898;1257;63988;-74
2023/10/02 11:35:28;;;;;;;11.90;3.70;;;;;;;23.57;32.37;100884.27;105980;1256;73228;-76
2023/10/02 11:37:58;;;;;;;6.40;3.30;;;;;;;23.29;33.05;100888.80;105931;1251;60382;-78
2023/10/02 11:40:28;;;;;;;9.30;3.50;;;;;;;23.10;33.61;100890.68;105859;1251;61357;-76
2023/10/02 11:42:59;;;;;;;7.30;3.70;;;;;;;23.01;33.91;100887.26;105816;1251;73143;-77
2023/10/02 11:45:27;;;;;;;6.40;3.60;;;;;;;22.89;34.18;100882.62;105764;1251;62574;-77
2023/10/02 11:47:54;;;;;;;10.50;3.70;;;;;;;22.76;34.47;100885.57;105939;1251;72688;-79
2023/10/02 11:50:21;;;;;;;7.00;3.60;;;;;;;22.65;34.94;100884.29;106015;1255;60424;-75
2023/10/02 11:52:50;;;;;;;9.20;3.50;;;;;;;22.57;34.96;100889.22;105893;1251;60488;-74
2023/10/02 11:55:18;;;;;;;11.10;3.50;;;;;;;22.38;34.40;100882.20;105886;1255;73815;-73
2023/10/02 11:57:51;;;;;;;10.80;4.30;;;;;;;22.01;34.35;100884.43;105891;1255;63888;-74
2023/10/02 12:00:20;;;;;;;8.40;3.00;;;;;;;21.70;34.95;100890.14;105862;1256;72742;-77
2023/10/02 12:02:49;;;;;;;9.70;3.70;;;;;;;21.56;35.51;100892.69;105928;1255;61299;-77
2023/10/02 12:05:19;;;;;;;13.00;4.70;;;;;;;21.51;36.26;100895.14;105880;1256;60543;-77
2023/10/02 12:07:46;;;;;;;7.80;3.90;;;;;;;21.47;36.43;100888.91;105866;1252;75870;-75
2023/10/02 12:10:16;;;;;;;6.50;3.90;;;;;;;21.43;36.77;100896.23;105889;1257;63623;-75
2023/10/02 12:12:45;;;;;;;11.30;3.50;;;;;;;21.38;36.92;100893.92;105916;1256;70489;-72
2023/10/02 12:15:15;;;;;;;6.10;3.70;;;;;;;21.25;37.01;100898.20;105894;1254;60514;-76
2023/10/02 12:17:43;;;;;;;9.30;3.60;;;;;;;21.17;37.71;100898.88;105966;1255;61009;-76